Time;durP1;ratioP1;P1;durP2;ratioP2;P2;SDS_P1;SDS_P2;PMS_P1;PMS_P2;Temp;Humidity;BMP_temperature;BMP_pressure;BME280_temperature;BME280_humidity;BME280_pressure;Samples;Min_cycle;Max_cycle;Signal;HPM_P1;HPM_P2
2022/10/16 00:01:53;;;;;;;0.10;0.10;;;14.90;99.90;;;;;;5082487;28;20184;-80
2022/10/16 00:04:19;;;;;;;0.10;0.10;;;14.90;99.90;;;;;;5083175;28;20188;-80
2022/10/16 00:06:44;;;;;;;0.10;0.10;;;14.90;99.90;;;;;;5081439;28;20195;-81
2022/10/16 00:09:10;;;;;;;0.10;0.10;;;15.00;99.90;;;;;;5079847;28;20204;-80
2022/10/16 00:11:37;;;;;;;0.10;0.10;;;15.00;99.90;;;;;;5080734;28;20298;-80
2022/10/16 00:14:07;;;;;;;0.10;0.10;;;15.10;99.90;;;;;;5081165;28;20629;-80
2022/10/16 00:16:34;;;;;;;0.10;0.10;;;15.10;99.90;;;;;;5084178;28;20551;-80
2022/10/16 00:19:00;;;;;;;0.10;0.10;;;15.20;99.90;;;;;;5082636;28;20929;-79
2022/10/16 00:21:28;;;;;;;0.07;0.07;;;15.20;99.90;;;;;;5081861;28;20190;-80
2022/10/16 00:23:58;;;;;;;0.10;0.10;;;15.30;99.90;;;;;;5088718;28;20188;-80
2022/10/16 00:26:25;;;;;;;0.10;0.10;;;15.30;99.90;;;;;;5083046;28;20627;-80
2022/10/16 00:28:51;;;;;;;0.10;0.10;;;15.20;99.90;;;;;;5081409;28;20227;-79
2022/10/16 00:31:19;;;;;;;0.10;0.10;;;15.10;99.90;;;;;;5099311;28;20215;-80
2022/10/16 00:33:45;;;;;;;0.10;0.10;;;15.20;99.90;;;;;;5081739;28;20211;-80
2022/10/16 00:36:13;;;;;;;0.10;0.10;;;15.20;99.90;;;;;;5080722;28;20670;-80
2022/10/16 00:38:39;;;;;;;0.10;0.10;;;15.20;99.90;;;;;;5081236;28;20201;-80
2022/10/16 00:41:12;;;;;;;0.10;0.10;;;15.30;99.90;;;;;;5080938;28;20216;-80
2022/10/16 00:43:44;;;;;;;0.10;0.10;;;15.30;99.90;;;;;;5081732;28;20222;-80
2022/10/16 00:46:13;;;;;;;0.10;0.10;;;15.30;99.90;;;;;;5082132;28;20192;-80
2022/10/16 00:48:38;;;;;;;0.10;0.10;;;15.20;99.90;;;;;;5090922;28;20699;-80
2022/10/16 00:51:06;;;;;;;0.10;0.10;;;15.20;99.90;;;;;;5089301;28;20317;-80
2022/10/16 00:53:32;;;;;;;0.10;0.10;;;15.30;99.90;;;;;;5083399;28;20216;-80
2022/10/16 00:55:58;;;;;;;0.10;0.10;;;15.40;99.90;;;;;;5081903;28;20237;-80
2022/10/16 00:58:23;;;;;;;0.10;0.10;;;15.40;99.90;;;;;;5082007;28;20192;-80
2022/10/16 01:00:49;;;;;;;0.10;0.10;;;15.50;99.90;;;;;;5081005;28;20205;-80
2022/10/16 01:03:30;;;;;;;0.10;0.10;;;15.50;99.90;;;;;;5082315;28;20265;-80
2022/10/16 01:06:29;;;;;;;0.10;0.10;;;15.50;99.90;;;;;;5077272;28;20202;-80
2022/10/16 01:09:34;;;;;;;0.10;0.10;;;15.50;99.90;;;;;;5075462;28;20195;-80
2022/10/16 01:12:14;;;;;;;0.10;0.10;;;15.40;99.90;;;;;;5036284;28;20620;-80
2022/10/16 01:14:53;;;;;;;0.10;0.10;;;15.50;99.90;;;;;;5076029;28;20192;-80
2022/10/16 01:17:26;;;;;;;0.10;0.10;;;15.50;99.90;;;;;;5074175;28;20198;-80
2022/10/16 01:20:08;;;;;;;0.10;0.10;;;15.10;99.90;;;;;;5066096;28;20209;-80
2022/10/16 01:22:53;;;;;;;0.10;0.10;;;15.00;99.90;;;;;;5074081;28;20966;-79
2022/10/16 01:25:30;;;;;;;0.10;0.10;;;14.90;99.90;;;;;;5069216;28;21195;-80
2022/10/16 01:27:59;;;;;;;0.10;0.10;;;14.80;99.90;;;;;;5082617;28;20704;-80
2022/10/16 01:30:30;;;;;;;0.10;0.10;;;14.90;99.90;;;;;;5065756;28;20234;-80
2022/10/16 01:33:16;;;;;;;0.10;0.10;;;15.10;99.90;;;;;;5082619;28;20206;-80
2022/10/16 01:35:46;;;;;;;0.10;0.10;;;15.20;99.90;;;;;;5075778;28;20189;-80
2022/10/16 01:38:36;;;;;;;0.10;0.10;;;15.20;99.90;;;;;;5083461;28;20194;-80
2022/10/16 01:41:14;;;;;;;0.10;0.10;;;15.30;99.90;;;;;;5065938;28;20203;-80
2022/10/16 01:43:57;;;;;;;0.10;0.10;;;15.40;99.90;;;;;;5065669;28;20187;-80
2022/10/16 01:46:25;;;;;;;0.10;0.10;;;15.40;99.90;;;;;;5063886;28;20420;-80
2022/10/16 01:48:52;;;;;;;0.10;0.10;;;15.40;99.90;;;;;;5065980;28;20281;-80
2022/10/16 01:51:19;;;;;;;0.10;0.10;;;15.40;99.90;;;;;;5063626;28;20219;-80
2022/10/16 01:53:49;;;;;;;0.10;0.10;;;15.20;99.90;;;;;;5065995;28;20222;-80
2022/10/16 01:56:17;;;;;;;0.10;0.10;;;15.10;99.90;;;;;;5075353;28;20262;-80
2022/10/16 01:59:01;;;;;;;0.10;0.10;;;15.10;99.90;;;;;;5065082;28;20264;-80
2022/10/16 02:01:28;;;;;;;0.10;0.10;;;15.10;99.90;;;;;;5065794;28;20178;-80
2022/10/16 02:03:57;;;;;;;0.10;0.10;;;15.10;99.90;;;;;;5064447;28;20217;-80
2022/10/16 02:06:24;;;;;;;0.10;0.10;;;15.10;99.90;;;;;;5064308;28;20199;-80
2022/10/16 02:08:50;;;;;;;0.10;0.10;;;15.10;99.90;;;;;;5064193;28;20257;-80
2022/10/16 02:11:16;;;;;;;0.10;0.10;;;15.00;99.90;;;;;;5063648;28;20277;-80
2022/10/16 02:13:55;;;;;;;0.10;0.10;;;15.10;99.90;;;;;;5065594;28;20235;-80
2022/10/16 02:16:20;;;;;;;0.10;0.10;;;15.20;99.90;;;;;;5063006;28;20196;-80
2022/10/16 02:18:46;;;;;;;0.10;0.10;;;15.30;99.90;;;;;;5075625;28;20185;-80
2022/10/16 02:21:29;;;;;;;0.10;0.10;;;15.40;99.90;;;;;;5080167;28;20238;-80
2022/10/16 02:24:02;;;;;;;0.10;0.10;;;15.40;99.90;;;;;;5065941;28;20255;-80
2022/10/16 02:26:53;;;;;;;0.10;0.10;;;15.50;99.90;;;;;;5073969;28;20194;-79
2022/10/16 02:29:23;;;;;;;0.10;0.10;;;15.50;99.90;;;;;;5041481;28;20215;-80
2022/10/16 02:31:51;;;;;;;0.10;0.10;;;15.50;99.90;;;;;;5071295;28;20289;-80
2022/10/16 02:34:19;;;;;;;0.10;0.10;;;15.60;99.90;;;;;;5064469;28;20211;-80
2022/10/16 02:36:47;;;;;;;0.10;0.10;;;15.50;99.90;;;;;;5074310;28;20235;-80
2022/10/16 02:39:14;;;;;;;0.10;0.10;;;15.60;99.90;;;;;;5064622;28;20236;-80
2022/10/16 02:41:39;;;;;;;0.10;0.10;;;15.60;99.90;;;;;;5072078;28;20186;-80
2022/10/16 02:44:05;;;;;;;0.10;0.10;;;15.70;99.90;;;;;;5063628;28;20179;-80
2022/10/16 02:46:30;;;;;;;0.10;0.10;;;15.60;99.90;;;;;;5064497;28;20203;-80
2022/10/16 02:48:56;;;;;;;0.10;0.10;;;15.70;99.90;;;;;;5064947;28;20214;-79
2022/10/16 02:51:21;;;;;;;0.10;0.10;;;15.80;99.90;;;;;;5066889;28;20283;-80
2022/10/16 02:53:47;;;;;;;0.10;0.10;;;15.70;99.90;;;;;;5065525;28;20312;-80
2022/10/16 02:56:13;;;;;;;0.10;0.10;;;15.50;99.90;;;;;;5067882;28;20234;-79
2022/10/16 02:58:38;;;;;;;0.10;0.10;;;15.30;99.90;;;;;;5082722;28;20190;-80
2022/10/16 03:01:04;;;;;;;0.10;0.10;;;15.20;99.90;;;;;;5063948;28;20202;-80
2022/10/16 03:03:29;;;;;;;0.10;0.10;;;15.20;99.90;;;;;;5064709;28;20181;-80
2022/10/16 03:05:55;;;;;;;0.10;0.10;;;15.30;99.90;;;;;;5063294;28;20212;-80
2022/10/16 03:08:23;;;;;;;0.10;0.10;;;15.20;99.90;;;;;;5063586;28;20192;-80
2022/10/16 03:10:49;;;;;;;0.10;0.10;;;15.30;99.90;;;;;;5063165;28;20222;-80
2022/10/16 03:13:15;;;;;;;0.10;0.10;;;15.40;99.90;;;;;;5065718;28;20255;-80
2022/10/16 03:15:40;;;;;;;0.10;0.10;;;15.40;99.90;;;;;;5064549;28;20184;-80
2022/10/16 03:18:06;;;;;;;0.10;0.10;;;15.40;99.90;;;;;;5063975;28;20855;-80
2022/10/16 03:20:32;;;;;;;0.10;0.10;;;15.40;99.90;;;;;;5064716;28;20582;-80
2022/10/16 03:22:57;;;;;;;0.10;0.10;;;15.50;99.90;;;;;;5064018;28;20300;-80
2022/10/16 03:25:23;;;;;;;0.10;0.10;;;15.50;99.90;;;;;;5064863;28;20186;-80
2022/10/16 03:27:48;;;;;;;0.10;0.10;;;15.60;99.90;;;;;;5065438;28;20679;-80
2022/10/16 03:30:14;;;;;;;0.10;0.10;;;15.70;99.90;;;;;;5063166;28;20205;-80
2022/10/16 03:32:39;;;;;;;0.10;0.10;;;15.60;99.90;;;;;;5065762;28;20210;-80
2022/10/16 03:35:05;;;;;;;0.10;0.10;;;15.60;99.90;;;;;;5066181;28;20177;-80
2022/10/16 03:37:31;;;;;;;0.10;0.10;;;15.60;99.90;;;;;;5064126;28;20187;-81
2022/10/16 03:39:56;;;;;;;0.10;0.10;;;15.70;99.90;;;;;;5063124;28;20619;-80
2022/10/16 03:42:22;;;;;;;0.10;0.10;;;15.60;99.90;;;;;;5067377;28;20211;-80
2022/10/16 03:44:48;;;;;;;0.10;0.10;;;15.60;99.90;;;;;;5061931;28;20240;-81
2022/10/16 03:47:13;;;;;;;0.10;0.10;;;15.50;99.90;;;;;;5066859;28;20183;-80
2022/10/16 03:49:39;;;;;;;0.10;0.10;;;15.50;99.90;;;;;;5063663;28;20322;-80
2022/10/16 03:52:04;;;;;;;0.10;0.10;;;15.60;99.90;;;;;;5063093;28;20196;-80
2022/10/16 03:54:30;;;;;;;0.10;0.10;;;15.70;99.90;;;;;;5061607;28;20224;-80
2022/10/16 03:56:55;;;;;;;0.10;0.10;;;15.70;99.90;;;;;;5079088;28;20190;-80
2022/10/16 03:59:21;;;;;;;0.10;0.10;;;15.70;99.90;;;;;;5062164;28;20208;-80
2022/10/16 04:01:46;;;;;;;0.10;0.10;;;15.70;99.90;;;;;;5065801;28;20188;-80
2022/10/16 04:04:12;;;;;;;0.10;0.10;;;15.70;99.90;;;;;;5064142;28;20192;-80
2022/10/16 04:06:37;;;;;;;0.10;0.10;;;15.70;99.90;;;;;;5064976;28;20282;-80
2022/10/16 04:09:03;;;;;;;0.10;0.10;;;15.70;99.90;;;;;;5064086;28;20191;-79
2022/10/16 04:11:29;;;;;;;0.10;0.10;;;15.80;99.90;;;;;;5063806;28;20751;-80
2022/10/16 04:13:55;;;;;;;0.10;0.10;;;15.90;99.90;;;;;;5063413;28;20281;-80
2022/10/16 04:16:20;;;;;;;0.10;0.10;;;15.90;99.90;;;;;;5064443;28;20179;-80
2022/10/16 04:18:46;;;;;;;0.10;0.10;;;15.90;99.90;;;;;;5065269;28;20175;-80
2022/10/16 04:21:11;;;;;;;0.10;0.10;;;15.90;99.90;;;;;;5063390;28;20210;-80
2022/10/16 04:23:37;;;;;;;0.10;0.10;;;15.90;99.90;;;;;;5062927;28;20234;-80
2022/10/16 04:26:03;;;;;;;0.10;0.10;;;15.90;99.90;;;;;;5065478;28;20334;-81
2022/10/16 04:28:29;;;;;;;0.10;0.10;;;15.90;99.90;;;;;;5064516;28;20183;-81
2022/10/16 04:30:54;;;;;;;0.10;0.10;;;15.80;99.90;;;;;;5063483;28;20208;-81
2022/10/16 04:33:20;;;;;;;0.10;0.10;;;15.70;99.90;;;;;;5066262;28;20209;-81
2022/10/16 04:35:45;;;;;;;0.10;0.10;;;15.60;99.90;;;;;;5067251;28;20222;-80
2022/10/16 04:38:11;;;;;;;0.10;0.10;;;15.60;99.90;;;;;;5064458;28;20186;-80
2022/10/16 04:40:36;;;;;;;0.10;0.10;;;15.70;99.90;;;;;;5067481;28;20208;-80
2022/10/16 04:43:03;;;;;;;0.10;0.10;;;15.60;99.90;;;;;;5082512;28;20826;-80
2022/10/16 04:45:29;;;;;;;0.10;0.10;;;15.50;99.90;;;;;;5068621;28;20258;-80
2022/10/16 04:47:58;;;;;;;0.10;0.10;;;15.60;99.90;;;;;;5066762;28;20194;-81
2022/10/16 04:50:24;;;;;;;0.10;0.10;;;15.70;99.90;;;;;;5076938;28;20226;-80
2022/10/16 04:52:50;;;;;;;0.10;0.10;;;15.60;99.90;;;;;;5065397;28;20262;-81
2022/10/16 04:55:16;;;;;;;0.10;0.10;;;15.80;99.90;;;;;;5066392;28;20184;-79
2022/10/16 04:57:41;;;;;;;0.10;0.10;;;15.80;99.90;;;;;;5064641;28;20190;-79
2022/10/16 05:00:08;;;;;;;0.10;0.10;;;15.70;99.90;;;;;;5062379;28;20691;-80
2022/10/16 05:02:33;;;;;;;0.10;0.10;;;15.70;99.90;;;;;;5080259;28;20276;-79
2022/10/16 05:04:59;;;;;;;0.10;0.10;;;15.70;99.90;;;;;;5063826;28;20278;-80
2022/10/16 05:07:24;;;;;;;0.10;0.10;;;15.60;99.90;;;;;;5064748;28;20559;-79
2022/10/16 05:09:50;;;;;;;0.10;0.10;;;15.70;99.90;;;;;;5062609;28;20234;-79
2022/10/16 05:12:15;;;;;;;0.10;0.10;;;15.80;99.90;;;;;;5078970;28;20187;-79
2022/10/16 05:14:41;;;;;;;0.10;0.10;;;15.70;99.90;;;;;;5064775;28;20246;-80
2022/10/16 05:17:07;;;;;;;0.10;0.10;;;15.70;99.90;;;;;;5060050;28;20717;-79
2022/10/16 05:19:32;;;;;;;0.10;0.10;;;15.70;99.90;;;;;;5060478;28;20699;-82
2022/10/16 05:21:58;;;;;;;0.10;0.10;;;15.60;99.90;;;;;;5065273;28;20236;-82
2022/10/16 05:24:24;;;;;;;0.10;0.10;;;15.60;99.90;;;;;;5065230;28;20676;-80
2022/10/16 05:26:50;;;;;;;0.10;0.10;;;15.60;99.90;;;;;;5064391;28;20267;-81
2022/10/16 05:29:16;;;;;;;0.10;0.10;;;15.50;99.90;;;;;;5066640;28;20203;-81
2022/10/16 05:31:41;;;;;;;0.10;0.10;;;15.50;99.90;;;;;;5061179;28;20192;-82
2022/10/16 05:34:07;;;;;;;0.10;0.10;;;15.60;99.90;;;;;;5062892;28;20779;-81
2022/10/16 05:36:33;;;;;;;0.10;0.10;;;15.60;99.90;;;;;;5062778;28;20192;-81
2022/10/16 05:38:58;;;;;;;0.10;0.10;;;15.60;99.90;;;;;;5062169;28;20184;-81
2022/10/16 05:41:25;;;;;;;0.10;0.10;;;15.70;99.90;;;;;;5061885;28;20211;-81
2022/10/16 05:43:52;;;;;;;0.10;0.10;;;15.70;99.90;;;;;;5065286;28;20192;-81
2022/10/16 05:46:17;;;;;;;0.10;0.10;;;15.60;99.90;;;;;;5064147;28;20296;-82
2022/10/16 05:48:43;;;;;;;0.10;0.10;;;15.70;99.90;;;;;;5060735;28;20303;-79
2022/10/16 05:51:13;;;;;;;0.10;0.10;;;15.70;99.90;;;;;;5061063;28;20211;-80
2022/10/16 05:53:40;;;;;;;0.10;0.10;;;15.80;99.90;;;;;;5072942;28;20222;-80
2022/10/16 05:56:07;;;;;;;0.10;0.10;;;15.90;99.90;;;;;;5063755;28;20192;-80
2022/10/16 05:58:35;;;;;;;0.10;0.10;;;15.90;99.90;;;;;;5064563;28;20193;-80
2022/10/16 06:01:27;;;;;;;0.10;0.10;;;15.90;99.90;;;;;;5062319;28;20241;-80
2022/10/16 06:03:53;;;;;;;0.10;0.10;;;15.80;99.90;;;;;;5077139;28;20224;-81
2022/10/16 06:06:22;;;;;;;0.10;0.10;;;15.80;99.90;;;;;;5073130;28;20193;-80
2022/10/16 06:08:49;;;;;;;0.10;0.10;;;15.70;99.90;;;;;;5079440;28;20641;-79
2022/10/16 06:11:20;;;;;;;0.10;0.10;;;15.80;99.90;;;;;;5062861;28;20212;-81
2022/10/16 06:13:53;;;;;;;0.10;0.10;;;15.90;99.90;;;;;;5074468;28;20207;-80
2022/10/16 06:16:19;;;;;;;0.10;0.10;;;15.90;99.90;;;;;;5066054;28;20627;-81
2022/10/16 06:18:45;;;;;;;0.10;0.10;;;16.00;99.90;;;;;;5065492;28;20196;-81
2022/10/16 06:21:14;;;;;;;0.10;0.10;;;15.90;99.90;;;;;;5063012;28;20239;-80
2022/10/16 06:23:40;;;;;;;0.10;0.10;;;15.80;99.90;;;;;;5064429;28;20199;-80
2022/10/16 06:26:11;;;;;;;0.10;0.10;;;15.60;99.90;;;;;;5063242;28;20195;-80
2022/10/16 06:28:37;;;;;;;0.10;0.10;;;15.50;99.90;;;;;;5065379;28;20201;-80
2022/10/16 06:31:05;;;;;;;0.10;0.10;;;15.40;99.90;;;;;;5077549;28;20261;-80
2022/10/16 06:33:30;;;;;;;0.10;0.10;;;15.40;99.90;;;;;;5065535;28;20219;-80
2022/10/16 06:36:08;;;;;;;0.10;0.10;;;15.50;99.90;;;;;;5063500;28;20199;-80
2022/10/16 06:38:34;;;;;;;0.10;0.10;;;15.40;99.90;;;;;;5073758;28;20248;-80
2022/10/16 06:40:59;;;;;;;0.10;0.10;;;15.30;99.90;;;;;;5062615;28;20312;-80
2022/10/16 06:43:25;;;;;;;0.10;0.10;;;15.30;99.90;;;;;;5078122;28;20189;-80
2022/10/16 06:45:56;;;;;;;0.10;0.10;;;15.30;99.90;;;;;;5063680;28;20192;-81
2022/10/16 06:48:22;;;;;;;0.10;0.10;;;15.50;99.90;;;;;;5074072;28;22314;-81
2022/10/16 06:51:03;;;;;;;0.10;0.10;;;15.60;99.90;;;;;;5063913;28;20216;-80
2022/10/16 06:53:30;;;;;;;0.10;0.10;;;15.80;99.90;;;;;;5064842;28;20222;-80
2022/10/16 06:55:56;;;;;;;0.10;0.10;;;15.80;99.90;;;;;;5063337;28;20246;-80
2022/10/16 06:58:22;;;;;;;0.10;0.10;;;15.90;99.90;;;;;;5063404;28;20186;-80
2022/10/16 07:00:48;;;;;;;0.10;0.10;;;16.00;99.90;;;;;;5062911;28;20679;-83
2022/10/16 07:03:14;;;;;;;0.10;0.10;;;16.00;99.90;;;;;;5061269;28;20184;-82
2022/10/16 07:05:42;;;;;;;0.10;0.10;;;16.10;99.90;;;;;;5061162;28;20204;-82
2022/10/16 07:08:08;;;;;;;0.10;0.10;;;16.20;99.90;;;;;;5062379;28;20191;-82
2022/10/16 07:10:35;;;;;;;0.10;0.10;;;16.20;99.90;;;;;;5062616;28;20212;-81
2022/10/16 07:13:00;;;;;;;0.10;0.10;;;16.20;99.90;;;;;;5063126;28;21231;-83
2022/10/16 07:15:26;;;;;;;0.10;0.10;;;16.20;99.90;;;;;;5061358;28;20191;-83
2022/10/16 07:17:52;;;;;;;0.10;0.10;;;16.20;99.90;;;;;;5061352;28;20188;-83
2022/10/16 07:20:19;;;;;;;0.10;0.10;;;16.00;99.90;;;;;;5063197;28;20711;-82
2022/10/16 07:22:44;;;;;;;0.10;0.10;;;16.00;99.90;;;;;;5065767;28;20191;-82
2022/10/16 07:25:11;;;;;;;0.10;0.10;;;15.90;99.90;;;;;;5062968;28;20189;-80
2022/10/16 07:27:37;;;;;;;0.10;0.10;;;15.80;99.90;;;;;;5063941;28;20192;-80
2022/10/16 07:30:03;;;;;;;0.10;0.10;;;15.90;99.90;;;;;;5060099;28;20209;-81
2022/10/16 07:32:28;;;;;;;0.10;0.10;;;15.90;99.90;;;;;;5072799;28;20564;-81
2022/10/16 07:34:55;;;;;;;0.10;0.10;;;16.00;99.90;;;;;;5063099;28;20185;-81
2022/10/16 07:37:21;;;;;;;0.10;0.10;;;15.90;99.90;;;;;;5065221;28;20638;-81
2022/10/16 07:39:46;;;;;;;0.10;0.10;;;15.90;99.90;;;;;;5059858;28;20277;-80
2022/10/16 07:42:12;;;;;;;0.10;0.10;;;15.80;99.90;;;;;;5066150;28;20193;-80
2022/10/16 07:44:38;;;;;;;0.10;0.10;;;15.90;99.90;;;;;;5064297;28;20196;-80
2022/10/16 07:47:03;;;;;;;0.10;0.10;;;15.80;99.90;;;;;;5063597;28;20190;-81
2022/10/16 07:49:29;;;;;;;0.10;0.10;;;15.90;99.90;;;;;;5062652;28;20213;-80
2022/10/16 07:51:54;;;;;;;0.10;0.10;;;16.00;99.90;;;;;;5071807;28;20611;-81
2022/10/16 07:54:20;;;;;;;0.10;0.10;;;16.10;99.90;;;;;;5063298;28;20221;-80
2022/10/16 07:56:46;;;;;;;0.10;0.10;;;16.20;99.90;;;;;;5062725;28;20185;-81
2022/10/16 07:59:11;;;;;;;0.10;0.10;;;16.30;99.90;;;;;;5053275;28;20193;-80
2022/10/16 08:01:37;;;;;;;0.10;0.10;;;16.20;99.90;;;;;;5054607;28;20188;-80
2022/10/16 08:04:03;;;;;;;0.10;0.10;;;16.10;99.90;;;;;;5065869;28;20165;-80
2022/10/16 08:06:28;;;;;;;0.10;0.10;;;16.20;99.90;;;;;;5067327;28;20195;-80
2022/10/16 08:08:55;;;;;;;0.10;0.10;;;16.10;99.90;;;;;;5063716;28;20437;-80
2022/10/16 08:11:21;;;;;;;0.10;0.10;;;16.20;99.90;;;;;;5066121;28;20244;-80
2022/10/16 08:13:47;;;;;;;0.10;0.10;;;16.20;99.90;;;;;;5062695;28;20287;-80
2022/10/16 08:16:13;;;;;;;0.10;0.10;;;16.20;99.90;;;;;;5068140;28;20177;-80
2022/10/16 08:18:40;;;;;;;0.10;0.10;;;16.30;99.90;;;;;;5069964;28;20242;-81
2022/10/16 08:21:07;;;;;;;0.10;0.10;;;16.40;99.90;;;;;;5065992;28;20277;-81
2022/10/16 08:23:33;;;;;;;0.10;0.10;;;16.30;99.90;;;;;;5066849;28;20188;-83
2022/10/16 08:26:05;;;;;;;0.10;0.10;;;16.20;99.90;;;;;;5064507;28;20195;-83
2022/10/16 08:28:30;;;;;;;0.10;0.10;;;16.20;99.90;;;;;;5068040;28;20742;-83
2022/10/16 08:30:56;;;;;;;0.10;0.10;;;16.10;99.90;;;;;;5065234;28;20297;-83
2022/10/16 08:33:22;;;;;;;0.10;0.10;;;16.10;99.90;;;;;;5065045;28;20212;-83
2022/10/16 08:35:54;;;;;;;0.10;0.10;;;16.00;99.90;;;;;;5067180;28;20723;-83
2022/10/16 08:38:20;;;;;;;0.10;0.10;;;16.00;99.90;;;;;;5081285;28;20695;-82
2022/10/16 08:40:46;;;;;;;0.10;0.10;;;16.10;99.90;;;;;;5066207;28;20235;-84
2022/10/16 08:43:41;;;;;;;0.10;0.10;;;16.20;99.90;;;;;;5069124;28;20181;-83
2022/10/16 08:46:24;;;;;;;0.10;0.10;;;16.40;99.90;;;;;;5071484;28;20218;-80
2022/10/16 08:48:59;;;;;;;0.10;0.10;;;16.50;99.90;;;;;;5072042;28;20241;-80
2022/10/16 08:51:27;;;;;;;0.10;0.10;;;16.50;99.90;;;;;;5074003;28;20188;-80
2022/10/16 08:54:36;;;;;;;0.10;0.10;;;16.60;99.90;;;;;;5060389;28;20211;-84
2022/10/16 08:57:17;;;;;;;0.10;0.10;;;16.70;99.90;;;;;;5081473;28;20234;-83
2022/10/16 08:59:43;;;;;;;0.10;0.10;;;16.80;99.90;;;;;;5062801;28;20233;-84
2022/10/16 09:02:42;;;;;;;0.10;0.10;;;16.60;99.90;;;;;;5064553;28;20661;-83
2022/10/16 09:05:45;;;;;;;0.10;0.10;;;16.70;99.90;;;;;;5062304;28;20185;-84
2022/10/16 09:08:13;;;;;;;0.10;0.10;;;16.90;99.90;;;;;;5070393;28;20658;-83
2022/10/16 09:10:39;;;;;;;0.10;0.10;;;17.00;99.90;;;;;;5072176;28;20217;-84
2022/10/16 09:13:28;;;;;;;0.10;0.10;;;17.10;99.90;;;;;;5074286;28;20221;-83
2022/10/16 09:16:21;;;;;;;0.10;0.10;;;17.00;99.90;;;;;;5082258;28;20181;-83
2022/10/16 09:19:18;;;;;;;0.10;0.10;;;17.10;99.90;;;;;;5072926;28;20673;-84
2022/10/16 09:21:45;;;;;;;0.10;0.10;;;17.10;99.90;;;;;;5079404;28;20192;-84
2022/10/16 09:24:20;;;;;;;0.10;0.10;;;16.80;99.90;;;;;;5065809;28;20200;-84
2022/10/16 09:26:47;;;;;;;0.10;0.10;;;16.80;99.90;;;;;;5064974;28;20193;-84
2022/10/16 09:29:14;;;;;;;0.10;0.10;;;16.80;99.90;;;;;;5080963;28;20201;-84
2022/10/16 09:31:41;;;;;;;0.10;0.10;;;16.80;99.90;;;;;;5061232;28;20678;-84
2022/10/16 09:34:21;;;;;;;0.10;0.10;;;17.00;99.90;;;;;;5064162;28;20785;-84
2022/10/16 09:36:47;;;;;;;0.10;0.10;;;17.10;99.90;;;;;;5080787;28;20279;-83
2022/10/16 09:39:12;;;;;;;0.10;0.10;;;17.30;99.90;;;;;;5072248;28;20184;-84
2022/10/16 09:41:41;;;;;;;0.10;0.10;;;17.30;99.90;;;;;;5073590;28;20201;-85
2022/10/16 09:44:23;;;;;;;0.10;0.10;;;17.40;99.90;;;;;;5075833;28;20199;-84
2022/10/16 09:46:49;;;;;;;0.70;0.70;;;17.50;99.90;;;;;;5067716;28;20188;-85
2022/10/16 09:49:26;;;;;;;0.10;0.10;;;17.60;99.90;;;;;;5064951;28;20299;-84
2022/10/16 09:52:13;;;;;;;0.10;0.10;;;17.70;99.90;;;;;;5063518;28;20227;-84
2022/10/16 09:54:59;;;;;;;0.10;0.10;;;17.90;99.90;;;;;;5058622;28;20240;-84
2022/10/16 09:57:25;;;;;;;0.10;0.10;;;18.10;99.90;;;;;;5064148;28;20184;-84
2022/10/16 09:59:53;;;;;;;0.10;0.10;;;18.30;99.90;;;;;;5075128;28;20212;-84
2022/10/16 10:02:25;;;;;;;0.10;0.10;;;18.50;99.90;;;;;;5066147;28;20298;-83
2022/10/16 10:04:56;;;;;;;0.10;0.10;;;18.80;99.90;;;;;;5063512;28;20201;-81
2022/10/16 10:07:27;;;;;;;0.10;0.10;;;19.20;99.90;;;;;;5063704;28;20196;-82
2022/10/16 10:09:54;;;;;;;0.10;0.10;;;19.20;99.90;;;;;;5064822;28;20300;-82
2022/10/16 10:12:28;;;;;;;0.10;0.10;;;19.00;99.90;;;;;;5066309;28;20212;-81
2022/10/16 10:14:56;;;;;;;0.10;0.10;;;18.90;99.90;;;;;;5063944;28;20579;-81
2022/10/16 10:17:27;;;;;;;0.10;0.10;;;18.70;99.90;;;;;;5074669;28;21019;-82
2022/10/16 10:19:56;;;;;;;0.10;0.10;;;19.10;99.90;;;;;;5073659;28;20204;-81
2022/10/16 10:22:32;;;;;;;0.10;0.10;;;19.30;99.90;;;;;;5063016;28;20224;-81
2022/10/16 10:25:00;;;;;;;0.10;0.10;;;19.60;99.90;;;;;;5079829;28;20195;-82
2022/10/16 10:27:39;;;;;;;0.10;0.10;;;19.70;99.90;;;;;;5067366;28;20200;-81
2022/10/16 10:30:23;;;;;;;0.10;0.10;;;20.00;99.90;;;;;;5072961;28;20208;-82
2022/10/16 10:33:00;;;;;;;0.10;0.10;;;20.00;99.90;;;;;;5064113;28;20208;-81
2022/10/16 10:35:45;;;;;;;0.10;0.10;;;20.10;99.90;;;;;;5064858;28;20192;-81
2022/10/16 10:38:29;;;;;;;0.10;0.10;;;20.10;99.90;;;;;;5065412;28;20675;-81
2022/10/16 10:41:25;;;;;;;0.10;0.10;;;20.10;99.90;;;;;;5079197;28;20244;-82
2022/10/16 10:44:48;;;;;;;0.10;0.10;;;20.10;99.90;;;;;;5066689;28;20654;-81
2022/10/16 10:47:19;;;;;;;0.10;0.10;;;20.30;99.90;;;;;;5012468;28;20296;-81
2022/10/16 10:50:21;;;;;;;0.10;0.10;;;20.50;99.90;;;;;;4995968;28;20214;-82
2022/10/16 10:53:08;;;;;;;0.10;0.10;;;20.50;99.90;;;;;;5059981;28;20251;-81
2022/10/16 10:55:38;;;;;;;13.27;12.37;;;20.60;99.90;;;;;;5062347;28;20240;-82
2022/10/16 10:58:34;;;;;;;0.10;0.10;;;20.60;99.90;;;;;;5061176;28;20173;-81
2022/10/16 11:01:11;;;;;;;0.10;0.10;;;20.60;99.90;;;;;;5058026;28;20193;-80
2022/10/16 11:04:18;;;;;;;0.10;0.10;;;20.80;99.90;;;;;;5066660;28;20185;-81
2022/10/16 11:07:05;;;;;;;0.10;0.10;;;20.80;99.90;;;;;;5065472;28;20180;-82
2022/10/16 11:09:40;;;;;;;0.10;0.10;;;20.90;99.90;;;;;;5077053;28;20209;-81
2022/10/16 11:12:19;;;;;;;0.10;0.10;;;21.10;99.90;;;;;;5066973;28;20208;-81
2022/10/16 11:15:10;;;;;;;0.10;0.10;;;21.50;99.90;;;;;;5066633;28;20205;-81
2022/10/16 11:17:40;;;;;;;0.10;0.10;;;21.50;99.90;;;;;;5066686;28;20205;-81
2022/10/16 11:20:32;;;;;;;0.10;0.10;;;21.40;99.90;;;;;;5063785;28;20197;-81
2022/10/16 11:23:23;;;;;;;0.10;0.10;;;21.30;99.90;;;;;;5066731;28;20184;-81
2022/10/16 11:25:50;;;;;;;0.10;0.10;;;21.80;99.90;;;;;;5075937;28;20280;-81
2022/10/16 11:28:29;;;;;;;0.10;0.10;;;22.00;99.90;;;;;;5066259;28;20185;-81
2022/10/16 11:31:02;;;;;;;0.10;0.10;;;21.70;99.90;;;;;;5072379;28;20215;-81
2022/10/16 11:33:54;;;;;;;0.10;0.10;;;21.70;99.90;;;;;;5068329;28;20216;-82
2022/10/16 11:36:22;;;;;;;0.10;0.10;;;21.90;99.90;;;;;;5072977;28;20586;-81
2022/10/16 11:38:57;;;;;;;0.10;0.10;;;22.00;99.90;;;;;;5061671;28;20267;-81
2022/10/16 11:41:35;;;;;;;0.10;0.10;;;22.20;99.90;;;;;;5060726;28;20183;-82
2022/10/16 11:44:24;;;;;;;0.10;0.10;;;22.20;99.90;;;;;;5070450;28;20196;-82
2022/10/16 11:47:13;;;;;;;0.10;0.10;;;22.10;99.90;;;;;;5071096;28;20189;-82
2022/10/16 11:49:40;;;;;;;0.10;0.10;;;22.00;99.90;;;;;;5025693;28;20209;-81
2022/10/16 11:52:11;;;;;;;0.00;0.00;;;22.20;99.90;;;;;;5056295;28;20809;-82
2022/10/16 11:54:49;;;;;;;0.10;0.10;;;22.60;99.90;;;;;;5059964;28;20221;-80
2022/10/16 11:57:28;;;;;;;0.10;0.10;;;22.90;99.90;;;;;;5054452;28;20543;-81
2022/10/16 12:00:18;;;;;;;0.10;0.10;;;23.10;99.90;;;;;;5059227;28;20232;-81
2022/10/16 12:02:52;;;;;;;0.10;0.10;;;23.50;99.90;;;;;;5070267;28;20208;-82
2022/10/16 12:05:52;;;;;;;0.10;0.10;;;23.50;99.90;;;;;;5068934;28;20602;-80
2022/10/16 12:08:18;;;;;;;0.10;0.10;;;23.00;99.90;;;;;;5063552;28;20666;-81
2022/10/16 12:10:46;;;;;;;0.10;0.10;;;22.80;99.90;;;;;;5058176;28;20206;-81
2022/10/16 12:13:31;;;;;;;0.10;0.10;;;22.60;99.90;;;;;;5062705;28;20561;-80
2022/10/16 12:16:12;;;;;;;0.10;0.10;;;22.40;99.90;;;;;;5061067;28;20185;-80
2022/10/16 12:18:43;;;;;;;0.10;0.10;;;22.10;99.90;;;;;;5057425;28;20185;-80
2022/10/16 12:21:13;;;;;;;0.10;0.10;;;22.00;99.90;;;;;;5050238;28;20204;-80
2022/10/16 12:23:57;;;;;;;0.10;0.10;;;21.90;99.90;;;;;;5067561;28;20190;-81
2022/10/16 12:26:29;;;;;;;0.10;0.10;;;21.90;99.90;;;;;;5054065;28;20181;-80
2022/10/16 12:28:57;;;;;;;0.10;0.10;;;21.70;99.90;;;;;;5062254;28;20191;-80
2022/10/16 12:31:24;;;;;;;0.10;0.10;;;21.70;99.90;;;;;;5058945;28;20994;-81
2022/10/16 12:34:02;;;;;;;0.10;0.10;;;21.60;99.90;;;;;;5054979;28;20220;-80
2022/10/16 12:36:33;;;;;;;0.10;0.10;;;21.50;99.90;;;;;;5060052;28;20201;-80
2022/10/16 12:38:59;;;;;;;0.10;0.10;;;21.60;99.90;;;;;;5071871;28;20212;-80
2022/10/16 12:41:30;;;;;;;0.10;0.10;;;21.50;99.90;;;;;;5058712;28;20218;-80
2022/10/16 12:43:57;;;;;;;0.10;0.10;;;21.60;99.90;;;;;;5055087;28;20235;-80
2022/10/16 12:46:43;;;;;;;0.10;0.10;;;21.70;99.90;;;;;;5061450;28;20178;-80
2022/10/16 12:49:21;;;;;;;0.10;0.10;;;21.60;99.90;;;;;;5057570;28;20197;-80
2022/10/16 12:51:47;;;;;;;0.10;0.10;;;21.50;99.90;;;;;;5072301;28;20200;-80
2022/10/16 12:54:19;;;;;;;0.10;0.10;;;21.50;99.90;;;;;;5065943;28;20209;-80
2022/10/16 12:57:10;;;;;;;0.10;0.10;;;21.50;99.90;;;;;;5072182;28;20276;-80
2022/10/16 12:59:52;;;;;;;0.10;0.10;;;21.40;99.90;;;;;;5069119;28;20208;-80
2022/10/16 13:02:50;;;;;;;0.10;0.10;;;21.30;99.90;;;;;;5073118;28;20188;-80
2022/10/16 13:05:25;;;;;;;0.10;0.10;;;21.40;99.90;;;;;;5078168;28;20178;-80
2022/10/16 13:08:11;;;;;;;0.10;0.10;;;21.40;99.90;;;;;;5081440;28;20203;-81
2022/10/16 13:10:41;;;;;;;0.10;0.10;;;21.50;99.90;;;;;;5067833;28;20604;-80